Time;durP1;ratioP1;P1;durP2;ratioP2;P2;SDS_P1;SDS_P2;PMS_P1;PMS_P2;Temp;Humidity;BMP_temperature;BMP_pressure;BME280_temperature;BME280_humidity;BME280_pressure;Samples;Min_cycle;Max_cycle;Signal;HPM_P1;HPM_P2
2021/12/25 00:01:20;;;;;;;7.93;3.90;;;13.00;99.90;;;;;;5013236;28;20105;-69
2021/12/25 00:03:52;;;;;;;8.20;3.10;;;13.00;99.90;;;;;;5013290;28;20026;-72
2021/12/25 00:06:18;;;;;;;5.07;3.88;;;13.00;99.90;;;;;;5010997;28;20477;-67
2021/12/25 00:08:44;;;;;;;8.57;3.65;;;12.90;99.90;;;;;;5012945;28;20466;-68
2021/12/25 00:11:11;;;;;;;6.68;4.38;;;12.90;99.90;;;;;;4995046;28;20032;-68
2021/12/25 00:13:39;;;;;;;9.27;4.27;;;12.90;99.90;;;;;;5013186;28;20026;-69
2021/12/25 00:16:06;;;;;;;7.95;4.55;;;12.90;99.90;;;;;;5012951;28;20332;-68
2021/12/25 00:18:32;;;;;;;;;;;13.00;99.90;;;;;;5012933;28;20482;-69
2021/12/25 00:20:58;;;;;;;7.95;4.07;;;12.90;99.90;;;;;;5012862;28;19905;-69
2021/12/25 00:23:25;;;;;;;10.40;4.97;;;12.90;99.90;;;;;;5012798;28;20482;-68
2021/12/25 00:26:00;;;;;;;6.07;4.25;;;12.90;99.90;;;;;;5012983;28;20029;-68
2021/12/25 00:33:52;;;;;;;6.10;3.33;;;13.00;99.90;;;;;;5012591;28;20069;-69
2021/12/25 00:36:17;;;;;;;8.80;4.10;;;13.10;99.90;;;;;;5012432;28;20160;-69
2021/12/25 00:38:45;;;;;;;9.05;4.38;;;13.00;99.90;;;;;;5011276;28;20069;-68
2021/12/25 00:41:12;;;;;;;8.82;4.60;;;13.00;99.90;;;;;;5012523;28;20054;-68
2021/12/25 00:43:39;;;;;;;7.80;4.05;;;13.10;99.90;;;;;;5012530;28;20030;-70
2021/12/25 00:46:05;;;;;;;6.38;4.03;;;13.10;99.90;;;;;;5012626;28;20018;-67
2021/12/25 00:48:31;;;;;;;7.00;4.10;;;13.10;99.90;;;;;;5012494;28;20026;-68
2021/12/25 00:50:57;;;;;;;4.32;3.55;;;13.10;99.90;;;;;;5012825;28;20037;-69
2021/12/25 00:53:23;;;;;;;8.05;3.75;;;13.10;99.90;;;;;;5012204;28;20154;-69
2021/12/25 00:55:50;;;;;;;10.10;4.25;;;13.10;99.90;;;;;;5012773;28;20078;-67
2021/12/25 00:58:16;;;;;;;8.27;4.50;;;13.20;99.90;;;;;;5012450;28;20030;-69
2021/12/25 01:00:43;;;;;;;7.73;4.97;;;13.10;99.90;;;;;;5012261;28;20029;-68
2021/12/25 01:03:09;;;;;;;7.05;4.30;;;13.10;99.90;;;;;;5012327;28;20029;-68
2021/12/25 01:05:35;;;;;;;8.77;4.43;;;13.10;99.90;;;;;;5011083;28;20026;-68
2021/12/25 01:08:01;;;;;;;9.68;4.75;;;13.10;99.90;;;;;;5011770;28;20121;-69
2021/12/25 01:10:28;;;;;;;9.60;4.60;;;13.10;99.90;;;;;;5012272;28;20033;-70
2021/12/25 01:13:06;;;;;;;9.63;4.40;;;13.20;99.90;;;;;;5012349;28;20030;-68
2021/12/25 01:31:51;;;;;;;11.00;4.90;;;13.20;99.90;;;;;;4959319;28;20514;-69
2021/12/25 01:37:03;;;;;;;10.65;5.32;;;13.10;99.90;;;;;;5016947;28;20026;-68
2021/12/25 01:39:46;;;;;;;11.70;5.28;;;13.10;99.90;;;;;;5001207;28;20046;-69
2021/12/25 01:47:49;;;;;;;8.68;4.88;;;13.10;99.90;;;;;;5016282;28;20057;-70
2021/12/25 01:50:18;;;;;;;10.75;4.80;;;13.10;99.90;;;;;;5014436;28;20051;-68
2021/12/25 01:52:45;;;;;;;11.40;5.20;;;13.20;99.90;;;;;;5015921;28;20117;-70
2021/12/25 01:55:15;;;;;;;9.15;4.18;;;13.20;99.90;;;;;;5015883;28;20424;-69
2021/12/25 01:57:42;;;;;;;9.60;4.88;;;13.20;99.90;;;;;;5015904;28;20073;-71
2021/12/25 02:00:15;;;;;;;10.43;5.47;;;13.20;99.90;;;;;;5015707;28;20030;-67
2021/12/25 02:02:41;;;;;;;14.73;4.65;;;13.10;99.90;;;;;;5014639;28;20370;-67
2021/12/25 02:05:07;;;;;;;8.95;4.90;;;13.10;99.90;;;;;;5015425;28;20343;-68
2021/12/25 02:07:33;;;;;;;7.95;5.30;;;13.00;99.90;;;;;;5015514;28;20018;-68
2021/12/25 02:09:59;;;;;;;10.75;5.85;;;13.00;99.90;;;;;;5015384;28;20072;-67
2021/12/25 02:12:26;;;;;;;12.00;5.40;;;13.00;99.90;;;;;;5015540;28;20022;-68
2021/12/25 02:14:52;;;;;;;10.93;5.33;;;13.00;99.90;;;;;;5015159;28;20100;-69
2021/12/25 02:17:26;;;;;;;10.88;5.38;;;12.90;99.90;;;;;;5015305;28;20018;-68
2021/12/25 02:20:32;;;;;;;11.15;5.13;;;13.00;99.90;;;;;;5015110;28;20108;-67
2021/12/25 02:23:04;;;;;;;7.18;4.70;;;12.90;99.90;;;;;;5015455;28;20018;-68
2021/12/25 02:25:35;;;;;;;11.75;4.70;;;12.90;99.90;;;;;;5014971;28;20072;-68
2021/12/25 02:28:04;;;;;;;9.65;5.32;;;13.00;99.90;;;;;;4997345;28;20032;-68
2021/12/25 02:30:30;;;;;;;10.40;4.55;;;13.00;99.90;;;;;;4997344;28;20088;-70
2021/12/25 02:32:59;;;;;;;13.75;4.72;;;13.00;99.90;;;;;;5015322;28;20018;-68
2021/12/25 02:35:29;;;;;;;8.70;5.00;;;13.00;99.90;;;;;;5014912;28;20121;-68
2021/12/25 02:37:55;;;;;;;11.82;4.95;;;13.00;99.90;;;;;;4997155;28;20030;-68
2021/12/25 02:40:21;;;;;;;8.65;5.28;;;13.00;99.90;;;;;;5015105;28;20030;-68
2021/12/25 02:42:47;;;;;;;10.00;4.93;;;13.00;99.90;;;;;;5014812;28;20041;-68
2021/12/25 02:45:18;;;;;;;10.50;5.00;;;13.00;99.90;;;;;;5015189;28;20022;-69
2021/12/25 02:47:47;;;;;;;7.97;4.70;;;13.00;99.90;;;;;;5014896;28;20226;-69
2021/12/25 02:50:21;;;;;;;8.70;4.47;;;13.00;99.90;;;;;;5014755;28;20057;-69
2021/12/25 02:52:47;;;;;;;13.63;5.10;;;13.00;99.90;;;;;;5014634;28;20062;-68
2021/12/25 02:55:13;;;;;;;11.80;4.90;;;13.00;99.90;;;;;;5014902;28;20347;-69
2021/12/25 02:57:40;;;;;;;9.53;5.17;;;13.10;99.90;;;;;;4996714;28;20033;-68
2021/12/25 03:00:08;;;;;;;8.18;4.45;;;13.10;99.90;;;;;;5014415;28;20601;-68
2021/12/25 03:02:38;;;;;;;13.27;5.38;;;13.20;99.90;;;;;;4996706;28;20033;-69
2021/12/25 03:05:06;;;;;;;10.38;4.70;;;13.20;99.90;;;;;;5014258;28;20519;-68
2021/12/25 03:07:38;;;;;;;12.65;5.25;;;13.10;99.90;;;;;;4996245;28;20069;-69
2021/12/25 03:10:05;;;;;;;13.38;5.50;;;13.10;99.90;;;;;;5013460;28;20372;-68
2021/12/25 03:12:38;;;;;;;9.75;5.78;;;13.10;99.90;;;;;;4996617;28;20485;-70
2021/12/25 03:15:14;;;;;;;15.43;5.15;;;13.10;99.90;;;;;;5014389;28;20042;-69
2021/12/25 03:17:40;;;;;;;10.45;5.28;;;13.10;99.90;;;;;;5014016;28;20022;-68
2021/12/25 03:20:09;;;;;;;8.43;4.80;;;13.10;99.90;;;;;;5014167;28;20053;-68
2021/12/25 03:22:37;;;;;;;12.35;5.00;;;13.00;99.90;;;;;;4996546;28;20022;-67
2021/12/25 03:25:07;;;;;;;8.75;4.65;;;13.00;99.90;;;;;;5013869;28;20034;-69
2021/12/25 03:27:36;;;;;;;8.25;4.93;;;13.10;99.90;;;;;;5014089;28;20118;-69
2021/12/25 03:30:05;;;;;;;9.70;4.97;;;13.10;99.90;;;;;;5013734;28;20026;-69
2021/12/25 03:32:31;;;;;;;8.77;4.75;;;13.10;99.90;;;;;;5014164;28;20045;-69
2021/12/25 03:34:57;;;;;;;11.27;5.00;;;13.10;99.90;;;;;;5014089;28;20042;-69
2021/12/25 03:37:23;;;;;;;8.93;4.93;;;13.20;99.90;;;;;;5013878;28;20042;-68
2021/12/25 03:39:49;;;;;;;8.48;4.95;;;13.10;99.90;;;;;;4996390;28;20450;-69
2021/12/25 03:42:15;;;;;;;10.93;5.93;;;13.10;99.90;;;;;;5013742;28;20049;-69
2021/12/25 03:44:41;;;;;;;9.50;5.00;;;13.10;99.90;;;;;;5013993;28;20370;-69
2021/12/25 03:47:23;;;;;;;9.83;5.70;;;13.10;99.90;;;;;;5014031;28;20441;-68
2021/12/25 03:58:09;;;;;;;12.35;5.07;;;13.10;99.90;;;;;;4998938;28;20175;-68
2021/12/25 04:00:36;;;;;;;8.38;4.80;;;13.10;99.90;;;;;;5013931;28;20092;-68
2021/12/25 04:03:07;;;;;;;12.88;5.13;;;13.20;99.90;;;;;;5013264;28;20030;-69
2021/12/25 04:05:36;;;;;;;13.98;5.55;;;13.20;99.90;;;;;;5013246;28;20030;-69
2021/12/25 04:08:07;;;;;;;9.57;4.97;;;13.20;99.90;;;;;;5013381;28;20020;-69
2021/12/25 04:10:40;;;;;;;12.15;4.90;;;13.20;99.90;;;;;;5013633;28;20057;-68
2021/12/25 04:13:10;;;;;;;10.55;4.95;;;13.20;99.90;;;;;;5013070;28;20029;-68
2021/12/25 04:15:36;;;;;;;11.48;5.07;;;13.20;99.90;;;;;;5013344;28;20095;-69
2021/12/25 04:18:04;;;;;;;12.48;5.32;;;13.20;99.90;;;;;;5013471;28;20120;-69
2021/12/25 04:20:31;;;;;;;11.73;5.00;;;13.20;99.90;;;;;;5012932;28;20037;-69
2021/12/25 04:23:02;;;;;;;12.63;5.22;;;13.10;99.90;;;;;;5012945;28;20046;-68
2021/12/25 04:25:31;;;;;;;9.05;5.18;;;13.20;99.90;;;;;;5013065;28;20026;-69
2021/12/25 04:28:05;;;;;;;11.35;5.38;;;13.10;99.90;;;;;;5012857;28;20037;-69
2021/12/25 05:03:46;;;;;;;13.70;7.38;;;12.80;99.90;;;;;;5011960;28;20044;-68
2021/12/25 05:06:14;;;;;;;16.13;6.07;;;12.80;99.90;;;;;;5012643;28;20471;-69
2021/12/25 05:09:00;;;;;;;13.40;6.32;;;12.80;99.90;;;;;;5012756;28;20037;-69
2021/12/25 05:11:27;;;;;;;12.13;6.47;;;12.80;99.90;;;;;;5012767;28;20045;-68
2021/12/25 05:13:53;;;;;;;13.32;5.53;;;12.80;99.90;;;;;;5013134;28;20292;-67
2021/12/25 05:16:29;;;;;;;18.00;6.60;;;12.80;99.90;;;;;;5012717;28;20334;-69
2021/12/25 05:18:57;;;;;;;13.23;6.18;;;12.80;99.90;;;;;;4995506;28;20045;-66
2021/12/25 05:21:26;;;;;;;17.40;6.20;;;12.80;99.90;;;;;;5012035;28;20030;-70
2021/12/25 05:23:53;;;;;;;9.90;5.53;;;12.80;99.90;;;;;;5012264;28;20032;-69
2021/12/25 05:26:19;;;;;;;19.27;6.67;;;12.80;99.90;;;;;;4994689;28;20269;-68
2021/12/25 05:28:56;;;;;;;16.27;7.03;;;12.80;99.90;;;;;;4994343;28;20363;-68
2021/12/25 05:31:22;;;;;;;15.07;6.65;;;12.80;99.90;;;;;;5011929;28;20037;-68
2021/12/25 05:33:48;;;;;;;11.77;6.10;;;12.70;99.90;;;;;;5012054;28;20034;-68
2021/12/25 05:36:14;;;;;;;15.53;6.50;;;12.70;99.90;;;;;;5012026;28;20022;-68
2021/12/25 05:38:40;;;;;;;15.83;6.00;;;12.80;99.90;;;;;;5011847;28;20026;-68
2021/12/25 05:41:06;;;;;;;13.25;6.50;;;12.80;99.90;;;;;;5011612;28;20272;-68
2021/12/25 05:43:33;;;;;;;15.17;6.57;;;12.90;99.90;;;;;;5011966;28;20128;-68
2021/12/25 05:45:59;;;;;;;13.98;6.03;;;12.80;99.90;;;;;;5011849;28;20025;-68
2021/12/25 05:48:25;;;;;;;12.13;6.40;;;12.80;99.90;;;;;;5012172;28;20462;-68
2021/12/25 05:50:51;;;;;;;14.07;6.53;;;12.80;99.90;;;;;;4993782;28;20030;-68
2021/12/25 05:53:17;;;;;;;20.65;5.85;;;12.80;99.90;;;;;;5011753;28;20303;-69
2021/12/25 05:55:43;;;;;;;17.15;6.25;;;12.90;99.90;;;;;;5011994;28;20112;-67
2021/12/25 05:58:09;;;;;;;19.50;7.03;;;12.80;99.90;;;;;;4994008;28;20022;-67
2021/12/25 06:00:37;;;;;;;14.33;6.63;;;12.90;99.90;;;;;;5006001;28;20045;-64
2021/12/25 06:03:04;;;;;;;18.13;6.53;;;12.90;99.90;;;;;;4998396;28;20101;-67
2021/12/25 06:05:31;;;;;;;20.48;7.13;;;12.80;99.90;;;;;;5001218;28;20022;-64
2021/12/25 06:07:58;;;;;;;13.82;6.07;;;12.80;99.90;;;;;;5002450;28;20101;-66
2021/12/25 06:10:24;;;;;;;13.98;6.90;;;12.80;99.90;;;;;;4991867;28;20080;-68
2021/12/25 06:12:54;;;;;;;12.00;6.53;;;12.90;99.90;;;;;;4991782;28;20034;-68
2021/12/25 06:15:21;;;;;;;16.13;6.72;;;12.90;99.90;;;;;;4993117;28;20018;-68
2021/12/25 06:17:47;;;;;;;12.23;7.07;;;12.90;99.90;;;;;;4995420;28;20071;-67
2021/12/25 06:20:14;;;;;;;17.63;6.97;;;12.90;99.90;;;;;;4995230;28;20022;-68
2021/12/25 06:22:40;;;;;;;15.38;7.88;;;12.90;99.90;;;;;;5002455;28;20081;-68
2021/12/25 06:25:07;;;;;;;17.20;7.47;;;12.90;99.90;;;;;;5014848;28;20022;-67
2021/12/25 06:27:34;;;;;;;25.75;7.55;;;12.90;99.90;;;;;;5012807;28;20022;-64
2021/12/25 06:30:00;;;;;;;11.85;7.25;;;13.00;99.90;;;;;;5012875;28;20029;-68
2021/12/25 06:32:26;;;;;;;13.93;7.97;;;12.90;99.90;;;;;;5014956;28;20025;-68
2021/12/25 06:34:52;;;;;;;13.53;7.33;;;13.00;99.90;;;;;;5014696;28;20042;-68
2021/12/25 06:37:19;;;;;;;14.30;7.23;;;13.00;99.90;;;;;;5015196;28;20264;-69
2021/12/25 06:39:47;;;;;;;19.58;6.53;;;13.10;99.90;;;;;;5014563;28;20037;-68
2021/12/25 06:42:14;;;;;;;19.20;7.25;;;13.10;99.90;;;;;;5014629;28;20057;-68
2021/12/25 06:44:41;;;;;;;9.90;6.05;;;13.20;99.90;;;;;;5014845;28;20225;-68
2021/12/25 06:47:07;;;;;;;13.15;7.28;;;13.20;99.90;;;;;;5014788;28;20026;-67
2021/12/25 06:49:34;;;;;;;18.20;7.68;;;13.20;99.90;;;;;;5014912;28;20105;-67
2021/12/25 06:52:00;;;;;;;25.67;7.00;;;13.30;99.90;;;;;;5014544;28;20018;-63
2021/12/25 06:54:27;;;;;;;13.55;7.78;;;13.40;99.90;;;;;;5014230;28;20681;-63
2021/12/25 06:56:53;;;;;;;;;;;13.40;99.90;;;;;;5002533;28;20034;-66
2021/12/25 06:59:21;;;;;;;16.27;6.85;;;13.50;99.90;;;;;;4994723;28;19906;-67
2021/12/25 07:01:50;;;;;;;14.23;8.13;;;13.50;99.90;;;;;;4997364;28;20029;-63
2021/12/25 07:04:16;;;;;;;16.67;7.75;;;13.50;99.90;;;;;;5001609;28;20037;-68
2021/12/25 07:06:43;;;;;;;18.85;7.70;;;13.60;99.90;;;;;;4999214;28;20191;-64
2021/12/25 07:09:09;;;;;;;;;;;13.80;99.90;;;;;;5009157;28;20030;-64
2021/12/25 07:11:36;;;;;;;18.27;7.13;;;13.90;99.90;;;;;;5007518;28;19913;-67
2021/12/25 07:14:04;;;;;;;14.30;6.85;;;14.10;99.90;;;;;;5004136;28;20022;-67
2021/12/25 07:16:32;;;;;;;16.13;6.82;;;14.30;99.90;;;;;;5003421;28;20022;-67
2021/12/25 07:18:58;;;;;;;14.50;6.43;;;14.50;99.90;;;;;;5001999;28;20022;-63
2021/12/25 07:21:26;;;;;;;13.98;6.00;;;14.70;99.90;;;;;;5012492;28;20092;-66
2021/12/25 07:23:53;;;;;;;12.90;6.05;;;14.80;99.90;;;;;;5011516;28;20116;-67
2021/12/25 07:26:19;;;;;;;14.93;6.53;;;14.80;99.90;;;;;;4995772;28;20084;-67
2021/12/25 07:28:46;;;;;;;16.35;5.63;;;14.90;99.90;;;;;;5014058;28;20370;-68
2021/12/25 07:31:12;;;;;;;15.73;5.72;;;14.80;99.90;;;;;;4996070;28;20084;-67
2021/12/25 07:33:42;;;;;;;15.18;6.53;;;15.00;99.90;;;;;;5013986;28;20034;-67
2021/12/25 07:36:12;;;;;;;14.55;6.90;;;14.90;99.90;;;;;;5013635;28;20040;-67
2021/12/25 07:38:39;;;;;;;14.05;6.20;;;15.00;99.90;;;;;;5013535;28;20061;-67
2021/12/25 07:41:07;;;;;;;13.07;5.88;;;15.00;99.90;;;;;;5013661;28;20026;-68
2021/12/25 07:43:34;;;;;;;14.15;5.75;;;15.00;99.90;;;;;;5013551;28;20034;-67
2021/12/25 07:46:02;;;;;;;12.63;5.70;;;15.10;99.90;;;;;;5013385;28;20108;-68
2021/12/25 07:48:33;;;;;;;15.02;5.95;;;15.10;99.90;;;;;;5013369;28;20049;-67
2021/12/25 07:51:05;;;;;;;17.50;6.28;;;15.00;99.90;;;;;;4995642;28;20026;-68
2021/12/25 07:53:32;;;;;;;17.25;5.93;;;15.00;99.90;;;;;;5012875;28;20401;-69
2021/12/25 07:55:58;;;;;;;21.13;6.47;;;15.00;99.90;;;;;;5013155;28;20038;-68
2021/12/25 07:58:25;;;;;;;18.63;6.03;;;15.20;99.90;;;;;;5013517;28;20092;-69
2021/12/25 08:00:54;;;;;;;19.67;6.57;;;15.20;99.90;;;;;;5013586;28;20111;-68
2021/12/25 08:03:21;;;;;;;14.20;5.72;;;15.20;99.90;;;;;;5013704;28;20057;-68
2021/12/25 08:05:47;;;;;;;15.00;6.10;;;15.30;99.90;;;;;;5013411;28;20022;-68
2021/12/25 08:08:14;;;;;;;14.15;6.28;;;15.40;99.90;;;;;;5013067;28;20025;-68
2021/12/25 08:10:42;;;;;;;17.23;7.53;;;15.40;99.90;;;;;;5013626;28;20057;-64
2021/12/25 08:13:10;;;;;;;14.35;6.10;;;15.60;99.90;;;;;;5013304;28;20076;-68
2021/12/25 08:15:37;;;;;;;18.88;6.47;;;15.70;99.90;;;;;;4995450;28;20029;-68
2021/12/25 08:18:04;;;;;;;16.67;6.32;;;15.80;99.90;;;;;;5011985;28;20047;-69
2021/12/25 08:20:31;;;;;;;22.17;6.15;;;16.10;99.90;;;;;;5011586;28;20026;-70
2021/12/25 08:22:57;;;;;;;23.00;6.10;;;16.20;99.90;;;;;;5013227;28;20030;-69
2021/12/25 08:25:24;;;;;;;19.63;5.97;;;16.10;99.90;;;;;;5013220;28;20036;-69
2021/12/25 08:27:52;;;;;;;16.05;6.13;;;16.20;99.90;;;;;;5012981;28;20279;-68
2021/12/25 08:30:22;;;;;;;15.77;5.90;;;16.20;99.90;;;;;;5012540;28;20026;-69
2021/12/25 08:32:52;;;;;;;12.85;5.28;;;16.30;99.90;;;;;;5012769;28;20053;-68
2021/12/25 08:35:18;;;;;;;21.52;6.07;;;16.30;99.90;;;;;;5012623;28;20435;-68
2021/12/25 08:37:45;;;;;;;20.13;6.05;;;16.30;99.90;;;;;;5012320;28;20066;-69
2021/12/25 08:40:13;;;;;;;17.30;6.40;;;16.20;99.90;;;;;;5012357;28;20030;-68
2021/12/25 08:42:45;;;;;;;18.80;6.45;;;16.10;99.90;;;;;;5011509;28;20037;-67
2021/12/25 08:45:37;;;;;;;16.80;6.35;;;16.10;99.90;;;;;;5012291;28;20046;-68
2021/12/25 08:47:59;;;;;;;18.45;6.40;;;16.00;99.90;;;;;;5012110;28;20102;-68
2021/12/25 08:50:26;;;;;;;14.07;6.07;;;15.90;99.90;;;;;;5012802;28;20453;-68
2021/12/25 08:52:52;;;;;;;15.95;6.22;;;15.90;99.90;;;;;;5011991;28;20109;-68
2021/12/25 08:55:19;;;;;;;27.02;6.45;;;15.90;99.90;;;;;;5010756;28;20042;-68
2021/12/25 08:57:45;;;;;;;15.98;6.18;;;15.90;99.90;;;;;;5012463;28;20093;-69
2021/12/25 09:00:12;;;;;;;20.13;6.88;;;15.90;99.90;;;;;;5012112;28;20058;-70
2021/12/25 09:02:38;;;;;;;20.50;7.18;;;15.80;99.90;;;;;;5012219;28;20471;-69
2021/12/25 09:05:05;;;;;;;16.83;5.97;;;15.80;99.90;;;;;;5012157;28;20058;-72
2021/12/25 09:07:31;;;;;;;23.65;6.85;;;16.00;99.90;;;;;;5012425;28;20037;-72
2021/12/25 09:09:58;;;;;;;20.85;6.15;;;16.10;99.90;;;;;;5012251;28;20028;-71
2021/12/25 09:12:25;;;;;;;;;;;16.10;99.90;;;;;;5012766;28;20114;-72
2021/12/25 09:14:51;;;;;;;18.25;6.07;;;16.10;99.90;;;;;;5012124;28;19913;-72
2021/12/25 09:17:18;;;;;;;19.83;8.07;;;16.10;99.90;;;;;;5011621;28;20381;-68
2021/12/25 09:19:44;;;;;;;20.67;6.75;;;16.00;99.90;;;;;;5011792;28;20037;-70
2021/12/25 09:22:11;;;;;;;22.38;6.95;;;16.00;99.90;;;;;;5012370;28;20105;-72
2021/12/25 09:24:38;;;;;;;18.98;7.25;;;15.80;99.90;;;;;;5012044;28;20466;-71
2021/12/25 09:27:05;;;;;;;16.73;7.82;;;15.80;99.90;;;;;;5006099;28;20025;-67
2021/12/25 09:29:32;;;;;;;17.65;6.63;;;15.60;99.90;;;;;;5000187;28;20077;-72
2021/12/25 09:31:59;;;;;;;18.23;7.57;;;15.60;99.90;;;;;;4975298;28;20034;-72
2021/12/25 09:34:25;;;;;;;19.70;7.22;;;15.70;99.90;;;;;;4992084;28;20161;-72
2021/12/25 09:36:52;;;;;;;27.45;7.75;;;15.60;99.90;;;;;;4992334;28;20046;-71
2021/12/25 09:39:18;;;;;;;22.42;8.27;;;15.60;99.90;;;;;;4992779;28;20034;-70
2021/12/25 09:41:44;;;;;;;22.85;8.63;;;15.40;99.90;;;;;;4992724;28;20487;-71
2021/12/25 09:44:10;;;;;;;19.98;7.80;;;15.40;99.90;;;;;;4992581;28;20032;-72
2021/12/25 09:46:36;;;;;;;22.38;7.78;;;15.50;99.90;;;;;;4992420;28;20108;-72
2021/12/25 09:49:03;;;;;;;28.38;7.95;;;15.50;99.90;;;;;;4992596;28;20110;-73
2021/12/25 09:51:29;;;;;;;28.17;8.45;;;15.40;99.90;;;;;;4995622;28;20019;-73
2021/12/25 09:54:06;;;;;;;19.10;8.40;;;15.70;99.90;;;;;;4995932;28;20150;-72
2021/12/25 09:56:36;;;;;;;24.75;7.85;;;15.80;99.90;;;;;;4996018;28;20061;-72
2021/12/25 09:59:03;;;;;;;26.27;8.75;;;16.00;99.90;;;;;;4995883;28;20101;-72
2021/12/25 10:01:42;;;;;;;30.17;8.90;;;16.20;99.90;;;;;;4995383;28;20022;-72
2021/12/25 10:04:11;;;;;;;20.27;7.28;;;16.30;99.90;;;;;;4995436;28;20035;-71
2021/12/25 10:06:40;;;;;;;19.35;7.93;;;16.40;99.90;;;;;;4995567;28;20081;-70
2021/12/25 10:09:21;;;;;;;19.75;7.93;;;16.20;99.90;;;;;;4995960;28;20031;-70
2021/12/25 10:12:03;;;;;;;23.75;8.90;;;16.00;99.90;;;;;;4994437;28;20475;-71
2021/12/25 10:14:30;;;;;;;33.53;9.02;;;16.10;99.90;;;;;;4979065;28;20411;-71
2021/12/25 10:16:56;;;;;;;26.67;8.98;;;16.20;99.90;;;;;;4995665;28;20128;-71
2021/12/25 10:19:30;;;;;;;25.58;8.55;;;16.10;99.90;;;;;;4995681;28;20026;-71
2021/12/25 10:22:09;;;;;;;35.53;8.50;;;16.20;99.90;;;;;;4995873;28;20499;-71
2021/12/25 10:24:48;;;;;;;20.35;7.65;;;16.30;99.90;;;;;;4995986;28;20113;-71
2021/12/25 10:27:20;;;;;;;23.00;8.15;;;16.60;99.90;;;;;;4995383;28;20034;-71
2021/12/25 10:29:47;;;;;;;24.27;8.20;;;16.50;99.90;;;;;;4995778;28;20026;-71
2021/12/25 10:32:23;;;;;;;23.35;8.45;;;16.50;99.90;;;;;;4978053;28;20034;-71
2021/12/25 10:34:53;;;;;;;27.55;8.93;;;16.40;99.90;;;;;;4978926;28;20110;-71
2021/12/25 10:37:21;;;;;;;25.05;8.90;;;16.20;99.90;;;;;;4995277;28;20127;-71
2021/12/25 10:39:50;;;;;;;20.58;8.13;;;16.10;99.90;;;;;;4995298;28;20478;-70
2021/12/25 11:01:26;;;;;;;29.27;9.30;;;15.90;99.90;;;;;;5129612;27;20468;-72
2021/12/25 11:03:52;;;;;;;26.45;8.93;;;16.30;99.90;;;;;;5129662;28;20023;-71
2021/12/25 11:06:19;;;;;;;25.17;8.15;;;16.40;99.90;;;;;;5129771;28;20031;-72
2021/12/25 11:08:46;;;;;;;27.25;8.70;;;16.40;99.90;;;;;;5129465;28;20023;-72
2021/12/25 11:11:18;;;;;;;27.77;8.38;;;16.50;99.90;;;;;;5129309;28;20062;-73
2021/12/25 11:13:52;;;;;;;26.65;8.02;;;16.50;99.90;;;;;;5130062;28;20111;-71
2021/12/25 11:16:27;;;;;;;28.73;7.88;;;16.40;99.90;;;;;;5129997;28;20188;-73
2021/12/25 11:19:10;;;;;;;22.65;7.50;;;16.50;99.90;;;;;;5111091;28;20362;-72
2021/12/25 11:21:49;;;;;;;33.15;7.50;;;16.50;99.90;;;;;;5129270;28;20031;-73
2021/12/25 11:24:19;;;;;;;26.88;7.38;;;16.50;99.90;;;;;;5129270;28;20049;-73
2021/12/25 11:26:49;;;;;;;21.23;8.05;;;16.60;99.90;;;;;;5129677;28;20016;-71
2021/12/25 11:29:18;;;;;;;29.73;8.07;;;16.60;99.90;;;;;;5110634;28;20079;-72
2021/12/25 11:31:45;;;;;;;24.05;8.23;;;16.60;99.90;;;;;;5128771;28;20038;-71
2021/12/25 11:34:11;;;;;;;26.58;8.05;;;16.70;99.90;;;;;;5129332;28;20110;-72
2021/12/25 11:36:40;;;;;;;18.80;7.47;;;16.60;99.90;;;;;;5129169;28;20023;-72
2021/12/25 11:39:07;;;;;;;23.42;7.22;;;16.70;99.90;;;;;;5129158;28;20027;-71
2021/12/25 11:41:56;;;;;;;20.40;7.05;;;16.80;99.90;;;;;;5128817;28;20016;-72
2021/12/25 11:44:36;;;;;;;23.77;7.30;;;16.90;99.90;;;;;;5128797;28;20027;-71
2021/12/25 11:47:03;;;;;;;27.67;7.50;;;16.70;99.90;;;;;;5128902;28;20115;-71
2021/12/25 11:49:30;;;;;;;32.10;8.27;;;16.70;99.90;;;;;;5128888;28;20490;-71
2021/12/25 11:52:13;;;;;;;22.45;7.53;;;16.70;99.90;;;;;;5128905;28;20464;-72
2021/12/25 11:59:48;;;;;;;25.92;7.28;;;16.40;99.90;;;;;;5128633;28;20281;-73
2021/12/25 12:02:49;;;;;;;23.67;7.22;;;16.50;99.90;;;;;;5116053;28;20028;-74
2021/12/25 12:05:22;;;;;;;26.30;7.90;;;16.50;99.90;;;;;;5031090;28;20029;-72
2021/12/25 12:08:10;;;;;;;24.55;7.53;;;16.30;99.90;;;;;;5031608;28;20047;-72
2021/12/25 12:10:50;;;;;;;23.17;8.00;;;16.20;99.90;;;;;;5030046;28;20041;-72
2021/12/25 12:13:27;;;;;;;25.27;7.90;;;16.30;99.90;;;;;;5032206;28;20541;-73
2021/12/25 12:15:55;;;;;;;22.75;7.90;;;16.30;99.90;;;;;;5032249;28;20402;-73
2021/12/25 12:18:24;;;;;;;26.25;6.97;;;16.50;99.90;;;;;;5032329;28;20069;-73
2021/12/25 12:20:51;;;;;;;21.23;6.95;;;16.60;99.90;;;;;;5032220;28;20041;-73
2021/12/25 12:26:35;;;;;;;23.20;6.68;;;16.50;99.90;;;;;;5032238;28;19996;-74
2021/12/25 12:29:01;;;;;;;21.83;7.22;;;16.60;99.90;;;;;;5032255;28;20029;-72
2021/12/25 12:31:41;;;;;;;26.30;7.25;;;16.40;99.90;;;;;;5026410;28;20045;-72
2021/12/25 12:34:39;;;;;;;22.00;6.95;;;16.30;99.90;;;;;;5010416;28;20084;-71
2021/12/25 12:37:13;;;;;;;22.60;6.72;;;16.50;99.90;;;;;;5012379;28;20124;-72
2021/12/25 12:40:06;;;;;;;24.08;7.35;;;16.70;99.90;;;;;;5067742;28;20040;-72
2021/12/25 12:42:45;;;;;;;26.15;6.82;;;16.80;99.90;;;;;;5093704;28;20096;-70
2021/12/25 12:45:13;;;;;;;24.30;6.82;;;16.70;99.90;;;;;;5092512;28;20035;-73
2021/12/25 12:47:40;;;;;;;25.58;6.60;;;16.80;99.90;;;;;;5091717;28;20756;-72
2021/12/25 12:50:11;;;;;;;18.83;6.28;;;16.90;99.90;;;;;;5107765;28;20309;-72
2021/12/25 12:52:40;;;;;;;23.60;6.28;;;16.90;99.90;;;;;;5093263;28;20020;-73
2021/12/25 12:55:29;;;;;;;23.83;6.78;;;16.90;99.90;;;;;;5094042;28;20032;-71
2021/12/25 12:58:19;;;;;;;24.77;6.70;;;16.90;99.90;;;;;;5110595;28;20416;-71
2021/12/25 13:00:55;;;;;;;32.22;6.53;;;17.00;99.90;;;;;;5093602;28;20044;-72
2021/12/25 13:03:22;;;;;;;23.58;6.10;;;17.30;99.90;;;;;;5093929;28;20078;-73
2021/12/25 13:06:02;;;;;;;33.35;6.40;;;17.40;99.90;;;;;;5093528;28;20032;-71
2021/12/25 13:08:31;;;;;;;21.38;6.35;;;17.40;99.90;;;;;;5093549;28;20126;-71
2021/12/25 13:11:09;;;;;;;18.70;5.97;;;17.40;99.90;;;;;;5093710;28;20028;-72
2021/12/25 13:13:41;;;;;;;28.23;6.18;;;17.40;99.90;;;;;;5092298;28;20084;-73
2021/12/25 13:16:11;;;;;;;16.23;5.32;;;17.50;99.90;;;;;;5093676;28;20128;-71
2021/12/25 13:18:46;;;;;;;28.98;6.25;;;17.40;99.90;;;;;;5093416;28;20362;-71
2021/12/25 13:21:16;;;;;;;19.15;5.88;;;17.30;99.90;;;;;;5093543;28;20042;-72
2021/12/25 13:23:53;;;;;;;18.70;5.80;;;17.40;99.90;;;;;;5093442;28;20016;-71
2021/12/25 13:26:30;;;;;;;17.77;5.60;;;17.40;99.90;;;;;;5093317;28;20074;-70
2021/12/25 13:28:57;;;;;;;22.80;6.43;;;17.40;99.90;;;;;;5093229;28;20444;-71
2021/12/25 13:31:25;;;;;;;20.38;6.03;;;17.50;99.90;;;;;;5093275;28;20035;-70
2021/12/25 13:33:57;;;;;;;23.63;6.10;;;17.70;99.90;;;;;;5093349;28;20016;-71
2021/12/25 13:36:28;;;;;;;24.67;5.68;;;17.80;99.90;;;;;;5093594;28;20024;-72
2021/12/25 13:39:02;;;;;;;20.92;5.78;;;17.80;99.90;;;;;;5093444;28;20099;-71
2021/12/25 13:41:31;;;;;;;28.05;6.15;;;17.60;99.90;;;;;;5093481;28;20024;-72
2021/12/25 13:44:12;;;;;;;27.38;6.63;;;17.50;99.90;;;;;;5093478;28;20028;-72
2021/12/25 13:46:45;;;;;;;24.80;6.05;;;17.50;99.90;;;;;;5093433;28;20099;-72
2021/12/25 13:49:30;;;;;;;21.65;6.65;;;17.50;99.90;;;;;;5092826;28;20032;-71
2021/12/25 13:52:34;;;;;;;26.23;6.47;;;17.50;99.90;;;;;;5092795;28;20060;-71
2021/12/25 13:55:06;;;;;;;31.50;6.55;;;17.30;99.90;;;;;;5092732;28;20471;-72
2021/12/25 13:57:35;;;;;;;31.80;6.38;;;17.20;99.90;;;;;;5092702;28;20106;-72
2021/12/25 14:00:16;;;;;;;24.73;7.90;;;17.00;99.90;;;;;;5092560;28;20048;-71
2021/12/25 14:02:46;;;;;;;26.00;6.20;;;17.00;99.90;;;;;;5093049;28;20054;-71
2021/12/25 14:05:13;;;;;;;19.55;6.10;;;17.00;99.90;;;;;;5093088;28;20123;-71
2021/12/25 14:07:40;;;;;;;26.38;6.78;;;17.20;99.90;;;;;;5074197;28;20024;-72
2021/12/25 14:10:20;;;;;;;22.05;6.13;;;17.30;99.90;;;;;;5092708;28;20152;-71
2021/12/25 14:12:50;;;;;;;23.75;6.15;;;17.30;99.90;;;;;;5093218;28;20032;-72
2021/12/25 14:15:19;;;;;;;24.10;5.72;;;17.20;99.90;;;;;;5092457;28;20028;-72
2021/12/25 14:17:46;;;;;;;24.20;5.53;;;17.40;99.90;;;;;;5092680;28;20084;-72
2021/12/25 14:20:17;;;;;;;17.58;5.68;;;17.30;99.90;;;;;;5092233;28;20020;-72
2021/12/25 14:22:46;;;;;;;23.33;5.82;;;17.40;99.90;;;;;;5092210;28;20476;-71
2021/12/25 14:25:24;;;;;;;22.13;6.90;;;17.50;99.90;;;;;;5092096;28;20049;-71
2021/12/25 14:28:02;;;;;;;25.10;5.80;;;17.50;99.90;;;;;;5092294;28;20103;-72
2021/12/25 14:30:31;;;;;;;21.67;5.90;;;17.30;99.90;;;;;;5092326;28;20043;-71
2021/12/25 14:32:57;;;;;;;24.17;6.65;;;17.20;99.90;;;;;;5092385;28;20016;-71